createdAt,value
2023-05-19T00:00:19.477Z,1018.65
2023-05-19T00:01:19.454Z,1018.62
2023-05-19T00:02:19.515Z,1018.62
2023-05-19T00:03:19.535Z,1018.64
2023-05-19T00:04:19.432Z,1018.66
2023-05-19T00:05:19.422Z,1018.64
2023-05-19T00:06:19.439Z,1018.66
2023-05-19T00:07:19.414Z,1018.67
2023-05-19T00:08:19.375Z,1018.65
2023-05-19T00:09:19.356Z,1018.63
2023-05-19T00:10:19.353Z,1018.64
2023-05-19T00:11:19.359Z,1018.63
2023-05-19T00:12:19.372Z,1018.64
2023-05-19T00:13:19.331Z,1018.62
2023-05-19T00:14:19.318Z,1018.62
2023-05-19T00:15:19.333Z,1018.59
2023-05-19T00:16:19.336Z,1018.62
2023-05-19T00:17:19.285Z,1018.63
2023-05-19T00:18:19.269Z,1018.58
2023-05-19T00:19:19.273Z,1018.62
2023-05-19T00:20:19.259Z,1018.61
2023-05-19T00:21:19.245Z,1018.57
2023-05-19T00:22:19.310Z,1018.55
2023-05-19T00:23:19.209Z,1018.57
2023-05-19T00:24:19.202Z,1018.57
2023-05-19T00:25:19.210Z,1018.54
2023-05-19T00:26:19.173Z,1018.54
2023-05-19T00:27:19.192Z,1018.55
2023-05-19T00:28:19.153Z,1018.54
2023-05-19T00:29:19.182Z,1018.55
2023-05-19T00:30:19.152Z,1018.51
2023-05-19T00:31:19.190Z,1018.54
2023-05-19T00:32:19.127Z,1018.59
2023-05-19T00:33:19.103Z,1018.57
2023-05-19T00:34:19.093Z,1018.51
2023-05-19T00:35:19.093Z,1018.56
2023-05-19T00:36:19.085Z,1018.57
2023-05-19T00:37:19.064Z,1018.56
2023-05-19T00:38:19.057Z,1018.54
2023-05-19T00:39:19.057Z,1018.60
2023-05-19T00:40:19.047Z,1018.58
2023-05-19T00:41:19.025Z,1018.59
2023-05-19T00:42:19.011Z,1018.64
2023-05-19T00:43:19.026Z,1018.59
2023-05-19T00:44:19.015Z,1018.62
2023-05-19T00:45:18.962Z,1018.58
2023-05-19T00:46:18.985Z,1018.60
2023-05-19T00:47:18.940Z,1018.59
2023-05-19T00:48:18.930Z,1018.62
2023-05-19T00:49:18.935Z,1018.58
2023-05-19T00:50:18.916Z,1018.58
2023-05-19T00:51:18.906Z,1018.60
2023-05-19T00:52:18.896Z,1018.61
2023-05-19T00:53:18.913Z,1018.66
2023-05-19T00:54:18.858Z,1018.67
2023-05-19T00:55:18.855Z,1018.62
2023-05-19T00:56:18.855Z,1018.66
2023-05-19T00:57:18.834Z,1018.66
2023-05-19T00:58:18.848Z,1018.68
2023-05-19T00:59:18.810Z,1018.70
2023-05-19T01:00:18.813Z,1018.72
2023-05-19T01:01:18.895Z,1018.66
2023-05-19T01:02:18.805Z,1018.68
2023-05-19T01:03:18.878Z,1018.71
2023-05-19T01:04:18.753Z,1018.74
2023-05-19T01:05:18.750Z,1018.71
2023-05-19T01:06:18.743Z,1018.71
2023-05-19T01:07:18.742Z,1018.70
2023-05-19T01:08:18.722Z,1018.68
2023-05-19T01:09:18.702Z,1018.66
2023-05-19T01:10:18.709Z,1018.67
2023-05-19T01:11:18.679Z,1018.68
2023-05-19T01:12:18.688Z,1018.67
2023-05-19T01:13:18.663Z,1018.65
2023-05-19T01:14:18.671Z,1018.65
2023-05-19T01:15:18.645Z,1018.66
2023-05-19T01:16:18.715Z,1018.61
2023-05-19T01:17:18.632Z,1018.61
2023-05-19T01:18:18.642Z,1018.62
2023-05-19T01:19:18.710Z,1018.61
2023-05-19T01:20:18.606Z,1018.60
2023-05-19T01:21:18.580Z,1018.57
2023-05-19T01:22:18.587Z,1018.57
2023-05-19T01:23:18.587Z,1018.54
2023-05-19T01:24:18.546Z,1018.54
2023-05-19T01:25:18.541Z,1018.53
2023-05-19T01:26:18.546Z,1018.51
2023-05-19T01:27:18.520Z,1018.52
2023-05-19T01:28:18.508Z,1018.53
2023-05-19T01:29:18.495Z,1018.54
2023-05-19T01:30:18.489Z,1018.52
2023-05-19T01:31:18.518Z,1018.52
2023-05-19T01:32:18.467Z,1018.55
2023-05-19T01:33:18.442Z,1018.47
2023-05-19T01:34:18.441Z,1018.51
2023-05-19T01:35:18.477Z,1018.51
2023-05-19T01:36:18.430Z,1018.50
2023-05-19T01:37:18.416Z,1018.46
2023-05-19T01:38:18.402Z,1018.48
2023-05-19T01:39:18.385Z,1018.49
2023-05-19T01:40:18.387Z,1018.48
2023-05-19T01:41:18.369Z,1018.46
2023-05-19T01:42:18.357Z,1018.43
2023-05-19T01:43:18.335Z,1018.46
2023-05-19T01:44:18.348Z,1018.49
2023-05-19T01:45:18.325Z,1018.46
2023-05-19T01:46:18.366Z,1018.45
2023-05-19T01:47:18.304Z,1018.46
2023-05-19T01:48:18.315Z,1018.43
2023-05-19T01:49:18.294Z,1018.47
2023-05-19T01:50:18.279Z,1018.46
2023-05-19T01:51:18.265Z,1018.48
2023-05-19T01:52:18.259Z,1018.52
2023-05-19T01:53:18.268Z,1018.49
2023-05-19T01:54:18.242Z,1018.50
2023-05-19T01:55:18.236Z,1018.53
2023-05-19T01:56:18.206Z,1018.52
2023-05-19T01:57:18.197Z,1018.55
2023-05-19T01:58:18.186Z,1018.53
2023-05-19T01:59:18.187Z,1018.52
2023-05-19T02:00:19.311Z,1018.52
2023-05-19T02:01:18.188Z,1018.55
2023-05-19T02:02:18.150Z,1018.50
2023-05-19T02:03:18.145Z,1018.51
2023-05-19T02:04:18.196Z,1018.54
2023-05-19T02:05:18.110Z,1018.53
2023-05-19T02:06:18.101Z,1018.54
2023-05-19T02:07:18.081Z,1018.54
2023-05-19T02:08:18.103Z,1018.56
2023-05-19T02:09:18.069Z,1018.59
2023-05-19T02:10:18.058Z,1018.58
2023-05-19T02:11:18.058Z,1018.61
2023-05-19T02:12:18.044Z,1018.64
2023-05-19T02:13:18.042Z,1018.64
2023-05-19T02:14:18.018Z,1018.63
2023-05-19T02:15:18.043Z,1018.63
2023-05-19T02:16:18.075Z,1018.66
2023-05-19T02:17:17.990Z,1018.69
2023-05-19T02:18:17.988Z,1018.65
2023-05-19T02:19:18.010Z,1018.65
2023-05-19T02:20:17.946Z,1018.67
2023-05-19T02:21:17.944Z,1018.64
2023-05-19T02:22:17.947Z,1018.65
2023-05-19T02:23:17.913Z,1018.61
2023-05-19T02:24:17.912Z,1018.63
2023-05-19T02:25:17.908Z,1018.61
2023-05-19T02:26:17.906Z,1018.63
2023-05-19T02:27:17.866Z,1018.63
2023-05-19T02:28:17.880Z,1018.64
2023-05-19T02:29:17.844Z,1018.62
2023-05-19T02:30:17.840Z,1018.67
2023-05-19T02:31:17.854Z,1018.70
2023-05-19T02:32:17.890Z,1018.67
2023-05-19T02:33:17.799Z,1018.68
2023-05-19T02:34:17.794Z,1018.65
2023-05-19T02:35:17.789Z,1018.67
2023-05-19T02:36:17.780Z,1018.68
2023-05-19T02:37:17.781Z,1018.59
2023-05-19T02:38:17.757Z,1018.63
2023-05-19T02:39:17.740Z,1018.62
2023-05-19T02:40:17.769Z,1018.59
2023-05-19T02:41:17.729Z,1018.62
2023-05-19T02:42:17.718Z,1018.60
2023-05-19T02:43:17.704Z,1018.57
2023-05-19T02:44:17.698Z,1018.58
2023-05-19T02:45:17.683Z,1018.52
2023-05-19T02:46:17.713Z,1018.46
2023-05-19T02:47:17.663Z,1018.52
2023-05-19T02:48:17.643Z,1018.48
2023-05-19T02:49:17.634Z,1018.52
2023-05-19T02:50:17.650Z,1018.48
2023-05-19T02:51:17.606Z,1018.53
2023-05-19T02:52:17.618Z,1018.54
2023-05-19T02:53:17.594Z,1018.51
2023-05-19T02:54:17.594Z,1018.51
2023-05-19T02:55:17.568Z,1018.50
2023-05-19T02:56:17.575Z,1018.51
2023-05-19T02:57:17.540Z,1018.48
2023-05-19T02:58:17.543Z,1018.53
2023-05-19T02:59:17.536Z,1018.51
2023-05-19T03:00:17.512Z,1018.51
2023-05-19T03:01:17.536Z,1018.48
2023-05-19T03:02:17.505Z,1018.46
2023-05-19T03:03:17.804Z,1018.48
2023-05-19T03:04:17.481Z,1018.48
2023-05-19T03:05:17.460Z,1018.48
2023-05-19T03:06:17.447Z,1018.47
2023-05-19T03:07:17.442Z,1018.49
2023-05-19T03:08:17.438Z,1018.47
2023-05-19T03:09:17.415Z,1018.45
2023-05-19T03:10:17.412Z,1018.47
2023-05-19T03:11:17.396Z,1018.46
2023-05-19T03:12:17.384Z,1018.46
2023-05-19T03:13:17.385Z,1018.43
2023-05-19T03:14:17.368Z,1018.44
2023-05-19T03:15:17.368Z,1018.42
2023-05-19T03:16:17.396Z,1018.44
2023-05-19T03:17:17.375Z,1018.43
2023-05-19T03:18:17.372Z,1018.42
2023-05-19T03:19:17.460Z,1018.41
2023-05-19T03:20:17.306Z,1018.40
2023-05-19T03:21:17.285Z,1018.37
2023-05-19T03:22:17.298Z,1018.37
2023-05-19T03:23:17.265Z,1018.40
2023-05-19T03:24:17.260Z,1018.41
2023-05-19T03:25:17.246Z,1018.38
2023-05-19T03:26:17.258Z,1018.38
2023-05-19T03:27:17.232Z,1018.38
2023-05-19T03:28:17.249Z,1018.38
2023-05-19T03:29:17.229Z,1018.37
2023-05-19T03:30:17.202Z,1018.39
2023-05-19T03:31:17.193Z,1018.35
2023-05-19T03:32:17.215Z,1018.37
2023-05-19T03:33:17.318Z,1018.42
2023-05-19T03:34:17.169Z,1018.44
2023-05-19T03:35:17.141Z,1018.43
2023-05-19T03:36:17.141Z,1018.43
2023-05-19T03:37:17.125Z,1018.45
2023-05-19T03:38:17.120Z,1018.45
2023-05-19T03:39:17.092Z,1018.49
2023-05-19T03:40:17.098Z,1018.51
2023-05-19T03:41:17.091Z,1018.52
2023-05-19T03:42:17.082Z,1018.55
2023-05-19T03:43:17.051Z,1018.52
2023-05-19T03:44:17.072Z,1018.49
2023-05-19T03:45:17.293Z,1018.49
2023-05-19T03:46:17.078Z,1018.50
2023-05-19T03:47:17.023Z,1018.49
2023-05-19T03:48:19.047Z,1018.53
2023-05-19T03:49:17.000Z,1018.57
2023-05-19T03:50:17.044Z,1018.52
2023-05-19T03:51:16.970Z,1018.55
2023-05-19T03:52:16.973Z,1018.56
2023-05-19T03:53:16.949Z,1018.57
2023-05-19T03:54:16.948Z,1018.59
2023-05-19T03:55:16.942Z,1018.61
2023-05-19T03:56:16.933Z,1018.62
2023-05-19T03:57:16.912Z,1018.60
2023-05-19T03:58:16.904Z,1018.62
2023-05-19T03:59:16.896Z,1018.63
2023-05-19T04:00:16.889Z,1018.64
2023-05-19T04:01:16.865Z,1018.61
2023-05-19T04:02:17.068Z,1018.61
2023-05-19T04:03:16.982Z,1018.59
2023-05-19T04:04:16.913Z,1018.59
2023-05-19T04:05:16.820Z,1018.55
2023-05-19T04:06:16.808Z,1018.54
2023-05-19T04:07:16.801Z,1018.56
2023-05-19T04:08:16.792Z,1018.55
2023-05-19T04:09:16.788Z,1018.55
2023-05-19T04:10:16.776Z,1018.52
2023-05-19T04:11:16.784Z,1018.57
2023-05-19T04:12:16.767Z,1018.51
2023-05-19T04:13:16.751Z,1018.51
2023-05-19T04:14:16.757Z,1018.50
2023-05-19T04:15:16.712Z,1018.51
2023-05-19T04:16:16.789Z,1018.48
2023-05-19T04:17:16.689Z,1018.49
2023-05-19T04:18:16.749Z,1018.49
2023-05-19T04:19:16.743Z,1018.50
2023-05-19T04:20:16.661Z,1018.53
2023-05-19T04:21:16.654Z,1018.55
2023-05-19T04:22:16.644Z,1018.54
2023-05-19T04:23:16.633Z,1018.54
2023-05-19T04:24:16.618Z,1018.54
2023-05-19T04:25:16.607Z,1018.52
2023-05-19T04:26:16.653Z,1018.55
2023-05-19T04:27:16.589Z,1018.55
2023-05-19T04:28:16.603Z,1018.50
2023-05-19T04:29:16.564Z,1018.47
2023-05-19T04:30:18.448Z,1018.49
2023-05-19T04:31:16.556Z,1018.53
2023-05-19T04:32:16.540Z,1018.50
2023-05-19T04:33:16.515Z,1018.50
2023-05-19T04:34:16.513Z,1018.48
2023-05-19T04:35:16.503Z,1018.48
2023-05-19T04:36:16.490Z,1018.49
2023-05-19T04:37:16.499Z,1018.50
2023-05-19T04:38:16.468Z,1018.48
2023-05-19T04:39:16.460Z,1018.50
2023-05-19T04:40:16.463Z,1018.50
2023-05-19T04:41:16.508Z,1018.52
2023-05-19T04:42:16.466Z,1018.53
2023-05-19T04:43:16.411Z,1018.52
2023-05-19T04:44:16.406Z,1018.47
2023-05-19T04:45:16.388Z,1018.51
2023-05-19T04:46:16.433Z,1018.50
2023-05-19T04:47:16.371Z,1018.51
2023-05-19T04:48:16.364Z,1018.51
2023-05-19T04:49:16.345Z,1018.53
2023-05-19T04:50:16.409Z,1018.52
2023-05-19T04:51:16.335Z,1018.51
2023-05-19T04:52:16.332Z,1018.47
2023-05-19T04:53:16.374Z,1018.50
2023-05-19T04:54:16.295Z,1018.49
2023-05-19T04:55:16.298Z,1018.49
2023-05-19T04:56:16.291Z,1018.50
2023-05-19T04:57:16.269Z,1018.50
2023-05-19T04:58:16.285Z,1018.52
2023-05-19T04:59:16.237Z,1018.57
2023-05-19T05:00:16.249Z,1018.56
2023-05-19T05:01:16.363Z,1018.55
2023-05-19T05:02:16.349Z,1018.57
2023-05-19T05:03:16.325Z,1018.57
2023-05-19T05:04:16.209Z,1018.56
2023-05-19T05:05:16.181Z,1018.61
2023-05-19T05:06:16.157Z,1018.60
2023-05-19T05:07:16.162Z,1018.61
2023-05-19T05:08:16.205Z,1018.56
2023-05-19T05:09:16.155Z,1018.58
2023-05-19T05:10:16.129Z,1018.58
2023-05-19T05:11:16.112Z,1018.59
2023-05-19T05:12:16.099Z,1018.56
2023-05-19T05:13:16.088Z,1018.58
2023-05-19T05:14:16.088Z,1018.60
2023-05-19T05:15:16.071Z,1018.61
2023-05-19T05:16:16.083Z,1018.62
2023-05-19T05:17:16.049Z,1018.61
2023-05-19T05:18:16.061Z,1018.59
2023-05-19T05:19:16.109Z,1018.61
2023-05-19T05:20:16.116Z,1018.63
2023-05-19T05:21:15.990Z,1018.63
2023-05-19T05:22:16.120Z,1018.64
2023-05-19T05:23:15.982Z,1018.59
2023-05-19T05:24:15.974Z,1018.59
2023-05-19T05:25:16.053Z,1018.59
2023-05-19T05:26:15.946Z,1018.62
2023-05-19T05:27:15.949Z,1018.60
2023-05-19T05:28:15.953Z,1018.60
2023-05-19T05:29:15.932Z,1018.56
2023-05-19T05:30:15.913Z,1018.56
2023-05-19T05:31:15.888Z,1018.53
2023-05-19T05:32:15.934Z,1018.53
2023-05-19T05:33:16.086Z,1018.53
2023-05-19T05:34:15.860Z,1018.55
2023-05-19T05:35:15.849Z,1018.56
2023-05-19T05:36:15.852Z,1018.54
2023-05-19T05:37:15.853Z,1018.52
2023-05-19T05:38:16.898Z,1018.49
2023-05-19T05:39:15.806Z,1018.52
2023-05-19T05:40:15.806Z,1018.50
2023-05-19T05:41:15.871Z,1018.56
2023-05-19T05:42:15.843Z,1018.53
2023-05-19T05:43:15.776Z,1018.47
2023-05-19T05:44:15.761Z,1018.55
2023-05-19T05:45:15.730Z,1018.57
2023-05-19T05:46:15.819Z,1018.46
2023-05-19T05:47:15.732Z,1018.49
2023-05-19T05:48:16.036Z,1018.46
2023-05-19T05:49:15.702Z,1018.52
2023-05-19T05:50:15.691Z,1018.48
2023-05-19T05:51:15.694Z,1018.42
2023-05-19T05:52:15.679Z,1018.40
2023-05-19T05:53:15.660Z,1018.43
2023-05-19T05:54:15.673Z,1018.41
2023-05-19T05:55:15.641Z,1018.35
2023-05-19T05:56:15.674Z,1018.37
2023-05-19T05:57:15.668Z,1018.30
2023-05-19T05:58:15.598Z,1018.34
2023-05-19T05:59:15.662Z,1018.33
2023-05-19T06:00:15.771Z,1018.36
2023-05-19T06:01:15.594Z,1018.34
2023-05-19T06:02:15.591Z,1018.35
2023-05-19T06:03:15.699Z,1018.38
2023-05-19T06:04:15.617Z,1018.43
2023-05-19T06:05:15.700Z,1018.45
2023-05-19T06:06:15.579Z,1018.43
2023-05-19T06:07:15.546Z,1018.39
2023-05-19T06:08:15.518Z,1018.41
2023-05-19T06:09:15.480Z,1018.39
2023-05-19T06:10:15.666Z,1018.43
2023-05-19T06:11:15.508Z,1018.37
2023-05-19T06:12:15.574Z,1018.38
2023-05-19T06:13:15.508Z,1018.38
2023-05-19T06:14:15.602Z,1018.35
2023-05-19T06:15:15.618Z,1018.34
2023-05-19T06:16:15.505Z,1018.33
2023-05-19T06:17:15.411Z,1018.34
2023-05-19T06:18:15.503Z,1018.38
2023-05-19T06:19:15.667Z,1018.35
2023-05-19T06:20:15.457Z,1018.30
2023-05-19T06:21:15.372Z,1018.27
2023-05-19T06:22:15.348Z,1018.29
2023-05-19T06:23:15.442Z,1018.32
2023-05-19T06:24:15.622Z,1018.29
2023-05-19T06:25:15.338Z,1018.28
2023-05-19T06:26:15.403Z,1018.28
2023-05-19T06:27:15.328Z,1018.30
2023-05-19T06:28:15.400Z,1018.27
2023-05-19T06:29:15.362Z,1018.26
2023-05-19T06:30:15.351Z,1018.28
2023-05-19T06:31:15.567Z,1018.30
2023-05-19T06:32:15.446Z,1018.26
2023-05-19T06:33:15.298Z,1018.26
2023-05-19T06:34:15.380Z,1018.29
2023-05-19T06:35:15.356Z,1018.24
2023-05-19T06:36:15.207Z,1018.22
2023-05-19T06:37:15.203Z,1018.23
2023-05-19T06:38:16.430Z,1018.17
2023-05-19T06:39:15.265Z,1018.20
2023-05-19T06:40:15.586Z,1018.22
2023-05-19T06:41:15.385Z,1018.24
2023-05-19T06:42:15.158Z,1018.20
2023-05-19T06:43:15.120Z,1018.22
2023-05-19T06:44:15.108Z,1018.21
2023-05-19T06:45:15.097Z,1018.19
2023-05-19T06:46:15.166Z,1018.20
2023-05-19T06:47:15.122Z,1018.15
2023-05-19T06:48:15.122Z,1018.17
2023-05-19T06:49:15.051Z,1018.19
2023-05-19T06:50:15.043Z,1018.20
2023-05-19T06:51:15.023Z,1018.18
2023-05-19T06:52:15.028Z,1018.21
2023-05-19T06:53:15.042Z,1018.21
2023-05-19T06:54:15.002Z,1018.23
2023-05-19T06:55:14.988Z,1018.22
2023-05-19T06:56:15.005Z,1018.19
2023-05-19T06:57:14.970Z,1018.15
2023-05-19T06:58:14.986Z,1018.16
2023-05-19T06:59:14.938Z,1018.18
2023-05-19T07:00:17.964Z,1018.20
2023-05-19T07:01:14.984Z,1018.22
2023-05-19T07:02:15.085Z,1018.19
2023-05-19T07:03:14.931Z,1018.19
2023-05-19T07:04:14.969Z,1018.17
2023-05-19T07:05:14.892Z,1018.15
2023-05-19T07:06:14.885Z,1018.19
2023-05-19T07:07:14.861Z,1018.20
2023-05-19T07:08:14.850Z,1018.16
2023-05-19T07:09:14.840Z,1018.14
2023-05-19T07:10:14.863Z,1018.14
2023-05-19T07:11:14.839Z,1018.13
2023-05-19T07:12:14.804Z,1018.15
2023-05-19T07:13:14.798Z,1018.14
2023-05-19T07:14:14.792Z,1018.13
2023-05-19T07:15:14.785Z,1018.10
2023-05-19T07:16:14.822Z,1018.08
2023-05-19T07:17:14.750Z,1018.08
2023-05-19T07:18:14.749Z,1018.05
2023-05-19T07:19:14.750Z,1018.08
2023-05-19T07:20:14.722Z,1018.10
2023-05-19T07:21:14.704Z,1018.04
2023-05-19T07:22:14.697Z,1018.07
2023-05-19T07:23:17.145Z,1018.06
2023-05-19T07:24:14.690Z,1018.06
2023-05-19T07:25:14.665Z,1017.99
2023-05-19T07:26:14.690Z,1018.04
2023-05-19T07:27:14.644Z,1018.05
2023-05-19T07:28:14.657Z,1018.03
2023-05-19T07:29:14.625Z,1018.05
2023-05-19T07:30:14.634Z,1018.09
2023-05-19T07:31:14.618Z,1018.02
2023-05-19T07:32:14.658Z,1018.00
2023-05-19T07:33:14.625Z,1018.00
2023-05-19T07:34:14.572Z,1017.98
2023-05-19T07:35:14.602Z,1018.01
2023-05-19T07:36:14.577Z,1017.96
2023-05-19T07:37:14.533Z,1017.99
2023-05-19T07:38:14.529Z,1017.96
2023-05-19T07:39:14.551Z,1017.98
2023-05-19T07:40:14.520Z,1017.96
2023-05-19T07:41:14.543Z,1017.98
2023-05-19T07:42:14.495Z,1017.97
2023-05-19T07:43:14.489Z,1018.02
2023-05-19T07:44:14.485Z,1017.98
2023-05-19T07:45:14.456Z,1018.03
2023-05-19T07:46:14.473Z,1018.01
2023-05-19T07:47:14.431Z,1018.07
2023-05-19T07:48:14.490Z,1018.03
2023-05-19T07:49:14.423Z,1017.99
2023-05-19T07:50:14.417Z,1017.99
2023-05-19T07:51:14.493Z,1017.93
2023-05-19T07:52:14.609Z,1017.91
2023-05-19T07:53:14.586Z,1017.91
2023-05-19T07:54:14.390Z,1017.89
2023-05-19T07:55:14.452Z,1017.85
2023-05-19T07:56:14.448Z,1017.84
2023-05-19T07:57:14.410Z,1017.81
2023-05-19T07:58:14.529Z,1017.85
2023-05-19T07:59:14.364Z,1017.85
2023-05-19T08:00:14.459Z,1017.88
2023-05-19T08:01:14.489Z,1017.85
2023-05-19T08:02:14.464Z,1017.85
2023-05-19T08:03:14.798Z,1017.81
2023-05-19T08:04:14.602Z,1017.83
2023-05-19T08:05:14.356Z,1017.81
2023-05-19T08:06:14.333Z,1017.81
2023-05-19T08:07:14.493Z,1017.86
2023-05-19T08:08:14.407Z,1017.80
2023-05-19T08:09:14.299Z,1017.77
2023-05-19T08:10:14.295Z,1017.74
2023-05-19T08:11:14.209Z,1017.71
2023-05-19T08:12:14.305Z,1017.69
2023-05-19T08:13:14.306Z,1017.69
2023-05-19T08:14:14.243Z,1017.68
2023-05-19T08:15:14.319Z,1017.67
2023-05-19T08:16:14.313Z,1017.69
2023-05-19T08:17:14.150Z,1017.68
2023-05-19T08:18:14.331Z,1017.67
2023-05-19T08:19:14.182Z,1017.62
2023-05-19T08:20:15.013Z,1017.60
2023-05-19T08:21:14.181Z,1017.63
2023-05-19T08:22:14.104Z,1017.50
2023-05-19T08:23:14.043Z,1017.51
2023-05-19T08:24:14.070Z,1017.52
2023-05-19T08:25:14.030Z,1017.47
2023-05-19T08:26:14.050Z,1017.49
2023-05-19T08:27:14.016Z,1017.51
2023-05-19T08:28:14.541Z,1017.49
2023-05-19T08:29:14.038Z,1017.46
2023-05-19T08:30:15.491Z,1017.47
2023-05-19T08:31:14.136Z,1017.43
2023-05-19T08:32:13.963Z,1017.44
2023-05-19T08:33:14.011Z,1017.40
2023-05-19T08:34:13.986Z,1017.39
2023-05-19T08:35:13.968Z,1017.35
2023-05-19T08:36:13.953Z,1017.36
2023-05-19T08:37:13.926Z,1017.38
2023-05-19T08:38:13.898Z,1017.36
2023-05-19T08:39:13.882Z,1017.35
2023-05-19T08:40:14.196Z,1017.34
2023-05-19T08:41:13.859Z,1017.31
2023-05-19T08:42:13.854Z,1017.30
2023-05-19T08:43:13.847Z,1017.35
2023-05-19T08:44:13.956Z,1017.29
2023-05-19T08:45:13.836Z,1017.34
2023-05-19T08:46:13.915Z,1017.31
2023-05-19T08:47:13.826Z,1017.30
2023-05-19T08:48:13.854Z,1017.30
2023-05-19T08:49:13.812Z,1017.28
2023-05-19T08:50:13.778Z,1017.28
2023-05-19T08:51:13.760Z,1017.31
2023-05-19T08:52:13.786Z,1017.29
2023-05-19T08:53:28.893Z,1017.30
2023-05-19T08:54:14.759Z,1017.25
2023-05-19T08:55:13.726Z,1017.27
2023-05-19T08:56:13.717Z,1017.23
2023-05-19T08:57:13.701Z,1017.25
2023-05-19T08:58:13.711Z,1017.25
2023-05-19T08:59:13.685Z,1017.19
2023-05-19T09:00:13.705Z,1017.19
2023-05-19T09:01:13.763Z,1017.21
2023-05-19T09:02:13.672Z,1017.21
2023-05-19T09:03:18.448Z,1017.20
2023-05-19T09:04:14.780Z,1017.22
2023-05-19T09:05:13.653Z,1017.18
2023-05-19T09:06:13.635Z,1017.15
2023-05-19T09:07:13.621Z,1017.11
2023-05-19T09:08:13.595Z,1017.09
2023-05-19T09:09:13.585Z,1017.11
2023-05-19T09:10:13.628Z,1017.11
2023-05-19T09:11:13.564Z,1017.10
2023-05-19T09:12:13.684Z,1017.08
2023-05-19T09:13:13.536Z,1017.08
2023-05-19T09:14:14.290Z,1017.02
2023-05-19T09:15:13.515Z,1017.02
2023-05-19T09:16:13.557Z,1017.02
2023-05-19T09:17:13.562Z,1017.03
2023-05-19T09:18:13.497Z,1016.98
2023-05-19T09:19:13.527Z,1017.04
2023-05-19T09:20:13.488Z,1017.01
2023-05-19T09:21:13.459Z,1016.96
2023-05-19T09:25:16.774Z,1016.92
2023-05-19T09:26:16.787Z,1016.91
2023-05-19T09:27:16.744Z,1016.92
2023-05-19T09:28:16.731Z,1016.89
2023-05-19T09:29:16.715Z,1016.89
2023-05-19T09:30:16.733Z,1016.85
2023-05-19T09:31:16.707Z,1016.86
2023-05-19T09:32:16.766Z,1016.85
2023-05-19T09:33:16.719Z,1016.84
2023-05-19T09:34:16.708Z,1016.80
2023-05-19T09:35:16.677Z,1016.81
2023-05-19T09:36:16.679Z,1016.79
2023-05-19T09:37:16.643Z,1016.81
2023-05-19T09:38:16.631Z,1016.79
2023-05-19T09:39:16.622Z,1016.79
2023-05-19T09:40:16.622Z,1016.78
2023-05-19T09:41:16.598Z,1016.78
2023-05-19T09:42:16.588Z,1016.69
2023-05-19T09:43:16.580Z,1016.74
2023-05-19T09:44:16.593Z,1016.73
2023-05-19T09:45:16.587Z,1016.72
2023-05-19T09:46:16.608Z,1016.71
2023-05-19T09:47:16.534Z,1016.73
2023-05-19T09:48:16.537Z,1016.69
2023-05-19T09:49:16.760Z,1016.70
2023-05-19T09:50:16.510Z,1016.73
2023-05-19T09:51:16.518Z,1016.72
2023-05-19T09:52:16.547Z,1016.71
2023-05-19T09:53:16.495Z,1016.65
2023-05-19T09:54:16.476Z,1016.61
2023-05-19T09:55:16.469Z,1016.64
2023-05-19T09:56:16.450Z,1016.64
2023-05-19T09:57:16.430Z,1016.60
2023-05-19T09:58:16.516Z,1016.63
2023-05-19T09:59:16.415Z,1016.64
2023-05-19T10:00:16.403Z,1016.63
2023-05-19T10:01:16.451Z,1016.68
2023-05-19T10:02:16.507Z,1016.69
2023-05-19T10:03:16.529Z,1016.59
2023-05-19T10:04:16.369Z,1016.61
2023-05-19T10:05:16.477Z,1016.58
2023-05-19T10:06:16.353Z,1016.56
2023-05-19T10:07:16.345Z,1016.55
2023-05-19T10:08:16.343Z,1016.53
2023-05-19T10:09:16.315Z,1016.45
2023-05-19T10:10:16.339Z,1016.50
2023-05-19T10:11:16.297Z,1016.48
2023-05-19T10:12:16.359Z,1016.44
2023-05-19T10:13:16.287Z,1016.45
2023-05-19T10:14:16.288Z,1016.48
2023-05-19T10:15:16.260Z,1016.43
2023-05-19T10:16:16.305Z,1016.42
2023-05-19T10:17:16.250Z,1016.36
2023-05-19T10:18:16.276Z,1016.36
2023-05-19T10:19:16.274Z,1016.34
2023-05-19T10:20:16.290Z,1016.31
2023-05-19T10:21:16.198Z,1016.29
2023-05-19T10:22:16.189Z,1016.26
2023-05-19T10:23:16.175Z,1016.23
2023-05-19T10:24:16.168Z,1016.25
2023-05-19T10:25:16.164Z,1016.19
2023-05-19T10:26:16.173Z,1016.23
2023-05-19T10:27:16.147Z,1016.26
2023-05-19T10:28:16.160Z,1016.21
2023-05-19T10:29:16.120Z,1016.21
2023-05-19T10:30:16.610Z,1016.26
2023-05-19T10:31:16.119Z,1016.22
2023-05-19T10:32:16.135Z,1016.17
2023-05-19T10:33:16.171Z,1016.17
2023-05-19T10:34:16.103Z,1016.14
2023-05-19T10:35:16.103Z,1016.15
2023-05-19T10:36:16.053Z,1016.16
2023-05-19T10:37:16.036Z,1016.14
2023-05-19T10:38:16.026Z,1016.17
2023-05-19T10:39:16.014Z,1016.16
2023-05-19T10:40:16.128Z,1016.14
2023-05-19T10:41:16.005Z,1016.07
2023-05-19T10:42:16.038Z,1016.07
2023-05-19T10:43:16.007Z,1016.09
2023-05-19T10:44:16.018Z,1016.12
2023-05-19T10:45:15.968Z,1016.16
2023-05-19T10:46:15.994Z,1016.13
2023-05-19T10:47:16.023Z,1016.09
2023-05-19T10:48:16.033Z,1016.06
2023-05-19T10:49:15.948Z,1016.03
2023-05-19T10:50:16.040Z,1016.08
2023-05-19T10:51:15.899Z,1016.06
2023-05-19T10:52:15.898Z,1016.05
2023-05-19T10:53:15.905Z,1016.00
2023-05-19T10:54:15.947Z,1015.97
2023-05-19T10:55:15.869Z,1015.98
2023-05-19T10:56:15.858Z,1016.00
2023-05-19T10:57:15.855Z,1015.98
2023-05-19T10:58:15.862Z,1015.93
2023-05-19T10:59:15.827Z,1015.97
2023-05-19T11:00:15.825Z,1015.92
2023-05-19T11:01:15.907Z,1015.89
2023-05-19T11:02:15.895Z,1015.87
2023-05-19T11:03:15.937Z,1015.89
2023-05-19T11:04:15.860Z,1015.64
2023-05-19T11:05:15.789Z,1015.75
2023-05-19T11:06:15.771Z,1015.87
2023-05-19T11:07:15.751Z,1015.85
2023-05-19T11:08:15.771Z,1015.81
2023-05-19T11:09:15.762Z,1016.04
2023-05-19T11:10:15.725Z,1015.73
2023-05-19T11:11:15.715Z,1015.83
2023-05-19T11:12:15.736Z,1015.89
2023-05-19T11:13:15.692Z,1015.85
2023-05-19T11:14:15.691Z,1015.80
2023-05-19T11:15:15.724Z,1016.15
2023-05-19T11:16:15.756Z,1016.07
2023-05-19T11:17:15.682Z,1015.74
2023-05-19T11:18:15.945Z,1016.10
2023-05-19T11:19:15.637Z,1015.77
2023-05-19T11:20:15.644Z,1015.82
2023-05-19T11:21:15.656Z,1016.12
2023-05-19T11:22:15.625Z,1015.99
2023-05-19T11:23:15.650Z,1016.06
2023-05-19T11:24:15.608Z,1015.94
2023-05-19T11:25:15.575Z,1015.92
2023-05-19T11:26:15.577Z,1015.89
2023-05-19T11:27:15.554Z,1015.84
2023-05-19T11:28:15.574Z,1015.85
2023-05-19T11:29:15.530Z,1015.84
2023-05-19T11:30:15.521Z,1015.78
2023-05-19T11:31:15.520Z,1015.77
2023-05-19T11:32:15.520Z,1015.78
2023-05-19T11:33:15.516Z,1015.76
2023-05-19T11:34:15.475Z,1015.74
2023-05-19T11:35:15.481Z,1015.75
2023-05-19T11:36:15.470Z,1015.73
2023-05-19T11:37:15.451Z,1015.70
2023-05-19T11:38:15.447Z,1015.64
2023-05-19T11:39:15.441Z,1015.67
2023-05-19T11:40:15.453Z,1015.68
2023-05-19T11:41:15.428Z,1015.64
2023-05-19T11:42:15.412Z,1015.68
2023-05-19T11:43:15.400Z,1015.65
2023-05-19T11:44:15.443Z,1015.67
2023-05-19T11:45:15.420Z,1015.34
2023-05-19T11:46:15.410Z,1015.33
2023-05-19T11:47:15.353Z,1015.47
2023-05-19T11:48:15.375Z,1015.44
2023-05-19T11:49:15.339Z,1015.48
2023-05-19T11:50:15.355Z,1015.49
2023-05-19T11:51:15.321Z,1015.49
2023-05-19T11:52:15.313Z,1015.49
2023-05-19T11:53:15.301Z,1015.67
2023-05-19T11:54:15.326Z,1015.64
2023-05-19T11:55:15.325Z,1015.59
2023-05-19T11:56:15.298Z,1015.61
2023-05-19T11:57:15.254Z,1015.60
2023-05-19T11:58:15.269Z,1015.61
2023-05-19T11:59:15.276Z,1015.57
2023-05-19T12:00:15.319Z,1015.52
2023-05-19T12:01:15.210Z,1015.51
2023-05-19T12:02:15.305Z,1015.49
2023-05-19T12:03:15.417Z,1015.51
2023-05-19T12:04:15.247Z,1015.50
2023-05-19T12:05:15.356Z,1015.51
2023-05-19T12:06:15.212Z,1015.53
2023-05-19T12:07:15.158Z,1015.56
2023-05-19T12:08:15.172Z,1015.52